^^
Meteo Knjazevac Station Historical Data
Daily Summary for April 3, 2021 Units:  Both    English   Metric
Daily Weekly Monthly Yearly Custom
  High: Low: Average:
Temperature: 61.4 °F /  16.3 °C 57.2 °F /  14 °C 58.6 °F /  14.8 °C
Dew Point: 57.1 °F /  13.9 °C 54.6 °F /  12.6 °C 55.9 °F /  13.3 °C
Humidity: 93% 86% 91%
Wind Speed: 3mph /  4.8km/h - 0.9mph /  1.4km/h
Wind Gust: 7mph /  11.3km/h - -
Wind- - SE
Pressure: 30.04 in /  1017.2 hPa 30.02 in /  1016.5 hPa -
Precipitation: 0.00 in /  0 mm    
Historical Graphs
 
 
Tabular Data for April 3, 2021
Time Temperature Dew Point Pressure Wind Wind Speed Wind Gust Humidity Rainfall Rate (Hourly) solar Conditions
00:00 61.4 °F /  16.3 °C 57.1 °F /  13.9 °C 30.03in /  1016.8hPa WNW 1mph /  1.6km/h 3mph /  4.8km/h 86% 0.00in /  0mm 0 W/m2
00:10 61.2 °F /  16.2 °C 56.9 °F /  13.8 °C 30.02in /  1016.5hPa Calm   2mph /  3.2km/h 86% 0.00in /  0mm 0 W/m2
00:20 60.6 °F /  15.9 °C 57 °F /  13.9 °C 30.03in /  1016.8hPa Calm   3mph /  4.8km/h 88% 0.00in /  0mm 0 W/m2
00:30 60.4 °F /  15.8 °C 56.9 °F /  13.8 °C 30.03in /  1016.8hPa Calm   2mph /  3.2km/h 88% 0.00in /  0mm 0 W/m2
00:40 60.3 °F /  15.7 °C 56.7 °F /  13.7 °C 30.02in /  1016.5hPa Calm   2mph /  3.2km/h 88% 0.00in /  0mm 0 W/m2
00:50 60.3 °F /  15.7 °C 56.7 °F /  13.7 °C 30.03in /  1016.8hPa Calm   2mph /  3.2km/h 88% 0.00in /  0mm 0 W/m2
01:00 60.1 °F /  15.6 °C 56.8 °F /  13.8 °C 30.02in /  1016.5hPa Calm   2mph /  3.2km/h 89% 0.00in /  0mm 0 W/m2
01:10 60.1 °F /  15.6 °C 56.5 °F /  13.6 °C 30.02in /  1016.5hPa Calm   2mph /  3.2km/h 88% 0.00in /  0mm 0 W/m2
01:20 59.7 °F /  15.4 °C 56.5 °F /  13.6 °C 30.03in /  1016.8hPa Calm   2mph /  3.2km/h 89% 0.00in /  0mm 0 W/m2
01:30 59.5 °F /  15.3 °C 56.3 °F /  13.5 °C 30.03in /  1016.8hPa NNW 1mph /  1.6km/h 2mph /  3.2km/h 89% 0.00in /  0mm 0 W/m2
01:40 59.2 °F /  15.1 °C 55.9 °F /  13.3 °C 30.02in /  1016.5hPa Calm   2mph /  3.2km/h 89% 0.00in /  0mm 0 W/m2
01:50 59 °F /  15 °C 56.1 °F /  13.4 °C 30.02in /  1016.5hPa Calm   2mph /  3.2km/h 90% 0.00in /  0mm 0 W/m2
02:00 58.6 °F /  14.8 °C 55.7 °F /  13.2 °C 30.02in /  1016.5hPa NNW 1mph /  1.6km/h 2mph /  3.2km/h 90% 0.00in /  0mm 0 W/m2
02:10 58.6 °F /  14.8 °C 55.7 °F /  13.2 °C 30.02in /  1016.5hPa NW 1mph /  1.6km/h 2mph /  3.2km/h 90% 0.00in /  0mm 0 W/m2
02:20 58.3 °F /  14.6 °C 55.4 °F /  13 °C 30.02in /  1016.5hPa Calm   2mph /  3.2km/h 90% 0.00in /  0mm 0 W/m2
02:30 57.9 °F /  14.4 °C 55 °F /  12.8 °C 30.02in /  1016.5hPa Calm   2mph /  3.2km/h 90% 0.00in /  0mm 0 W/m2
02:40 57.7 °F /  14.3 °C 55.1 °F /  12.8 °C 30.02in /  1016.5hPa North 2mph /  3.2km/h 2mph /  3.2km/h 91% 0.00in /  0mm 0 W/m2
02:50 57.7 °F /  14.3 °C 55.1 °F /  12.8 °C 30.02in /  1016.5hPa NE 2mph /  3.2km/h 4mph /  6.4km/h 91% 0.00in /  0mm 0 W/m2
03:00 57.9 °F /  14.4 °C 55.3 °F /  12.9 °C 30.02in /  1016.5hPa NE 2mph /  3.2km/h 4mph /  6.4km/h 91% 0.00in /  0mm 0 W/m2
03:10 57.7 °F /  14.3 °C 55.1 °F /  12.8 °C 30.02in /  1016.5hPa NNW 1mph /  1.6km/h 3mph /  4.8km/h 91% 0.00in /  0mm 0 W/m2
03:20 57.9 °F /  14.4 °C 55.9 °F /  13.3 °C 30.02in /  1016.5hPa NNE 1mph /  1.6km/h 3mph /  4.8km/h 93% 0.00in /  0mm 0 W/m2
03:30 58.1 °F /  14.5 °C 56.1 °F /  13.4 °C 30.02in /  1016.5hPa East 1mph /  1.6km/h 5mph /  8km/h 93% 0.00in /  0mm 0 W/m2
03:40 57.7 °F /  14.3 °C 55.7 °F /  13.2 °C 30.02in /  1016.5hPa Calm   2mph /  3.2km/h 93% 0.00in /  0mm 0 W/m2
03:50 57.7 °F /  14.3 °C 55.7 °F /  13.2 °C 30.02in /  1016.5hPa Calm   3mph /  4.8km/h 93% 0.00in /  0mm 0 W/m2
04:00 57.6 °F /  14.2 °C 55.5 °F /  13.1 °C 30.02in /  1016.5hPa WSW 1mph /  1.6km/h 2mph /  3.2km/h 93% 0.00in /  0mm 0 W/m2
04:10 57.2 °F /  14 °C 54.6 °F /  12.6 °C 30.03in /  1016.8hPa Calm   3mph /  4.8km/h 91% 0.00in /  0mm 0 W/m2
04:20 57.2 °F /  14 °C 55.2 °F /  12.9 °C 30.03in /  1016.8hPa NE 2mph /  3.2km/h 4mph /  6.4km/h 93% 0.00in /  0mm 0 W/m2
04:30 57.4 °F /  14.1 °C 55.4 °F /  13 °C 30.03in /  1016.8hPa NE 2mph /  3.2km/h 7mph /  11.3km/h 93% 0.00in /  0mm 0 W/m2
04:40 57.7 °F /  14.3 °C 55.7 °F /  13.2 °C 30.03in /  1016.8hPa NE 3mph /  4.8km/h 7mph /  11.3km/h 93% 0.00in /  0mm 0 W/m2
04:50 57.9 °F /  14.4 °C 55.9 °F /  13.3 °C 30.03in /  1016.8hPa NE 2mph /  3.2km/h 5mph /  8km/h 93% 0.00in /  0mm 0 W/m2
05:00 58.1 °F /  14.5 °C 56.1 °F /  13.4 °C 30.03in /  1016.8hPa NE 3mph /  4.8km/h 6mph /  9.7km/h 93% 0.00in /  0mm 5 W/m2
05:10 57.9 °F /  14.4 °C 55.9 °F /  13.3 °C 30.03in /  1016.8hPa NNE 1mph /  1.6km/h 4mph /  6.4km/h 93% 0.00in /  0mm 8 W/m2
05:20 57.9 °F /  14.4 °C 55.9 °F /  13.3 °C 30.03in /  1016.8hPa North 2mph /  3.2km/h 3mph /  4.8km/h 93% 0.00in /  0mm 13 W/m2
05:30 58.1 °F /  14.5 °C 56.1 °F /  13.4 °C 30.04in /  1017.2hPa NE 1mph /  1.6km/h 5mph /  8km/h 93% 0.00in /  0mm 17 W/m2
05:40 58.1 °F /  14.5 °C 55.5 °F /  13.1 °C 30.03in /  1016.8hPa NE 2mph /  3.2km/h 5mph /  8km/h 91% 0.00in /  0mm 23 W/m2
Knjazevac, Serbia
Compliments of Weather Underground - 2 mb